Time;durP1;ratioP1;P1;durP2;ratioP2;P2;SDS_P1;SDS_P2;PMS_P1;PMS_P2;Temp;Humidity;BMP_temperature;BMP_pressure;BME280_temperature;BME280_humidity;BME280_pressure;Samples;Min_cycle;Max_cycle;Signal;HPM_P1;HPM_P2
2022/06/20 00:00:49;;;;;;;17.13;4.80;;;;;;;20.71;38.56;102058.19;4997515;28;20038;-82
2022/06/20 00:03:26;;;;;;;14.63;4.30;;;;;;;20.70;38.63;102056.53;5015255;28;20026;-83
2022/06/20 00:05:52;;;;;;;11.52;4.10;;;;;;;20.72;38.43;102060.63;4997601;28;20488;-82
2022/06/20 00:08:19;;;;;;;9.48;4.18;;;;;;;20.77;38.24;102063.13;5017205;28;20177;-82
2022/06/20 00:10:46;;;;;;;14.35;3.95;;;;;;;20.66;38.54;102067.56;5034838;28;20064;-82
2022/06/20 00:13:20;;;;;;;17.33;4.68;;;;;;;20.65;38.56;102062.38;5016965;28;20451;-82
2022/06/20 00:15:48;;;;;;;14.90;4.28;;;;;;;20.67;38.53;102048.94;5015152;28;20370;-83
2022/06/20 00:18:14;;;;;;;14.32;4.35;;;;;;;20.58;38.45;102043.50;5031528;28;20030;-83
2022/06/20 00:20:40;;;;;;;12.68;3.97;;;;;;;20.62;38.38;102046.38;5029137;28;20103;-82
2022/06/20 00:23:06;;;;;;;10.98;3.63;;;;;;;20.59;38.44;102052.66;5014599;28;20515;-82
2022/06/20 00:25:32;;;;;;;13.50;4.65;;;;;;;20.58;38.42;102040.72;4996333;28;20030;-83
2022/06/20 00:27:58;;;;;;;16.17;5.22;;;;;;;20.53;38.60;102031.81;5014534;28;20034;-82
2022/06/20 00:30:23;;;;;;;19.27;4.65;;;;;;;20.53;38.82;102029.06;5033511;28;20029;-82
2022/06/20 00:32:49;;;;;;;13.13;4.13;;;;;;;20.52;38.63;102033.78;5034031;28;20033;-82
2022/06/20 00:35:15;;;;;;;13.07;4.38;;;;;;;20.53;38.73;102034.59;5034099;28;20087;-82
2022/06/20 00:37:42;;;;;;;10.30;3.90;;;;;;;20.53;38.85;102031.81;5034228;28;20025;-83
2022/06/20 00:40:27;;;;;;;15.82;4.65;;;;;;;20.56;38.78;102029.19;4998857;28;20030;-82
2022/06/20 00:42:54;;;;;;;13.77;3.38;;;;;;;20.55;38.64;102032.28;4996840;28;20057;-82
2022/06/20 00:45:23;;;;;;;18.70;4.35;;;;;;;20.52;38.85;102033.00;4996711;28;20092;-82
2022/06/20 00:47:51;;;;;;;16.35;4.25;;;;;;;20.58;38.50;102032.41;5008441;28;20064;-83
2022/06/20 00:50:24;;;;;;;12.00;4.13;;;;;;;20.43;38.77;102041.41;5016315;28;20057;-82
2022/06/20 00:53:01;;;;;;;10.80;4.28;;;;;;;20.52;38.66;102044.91;5012946;28;20037;-83
2022/06/20 00:55:37;;;;;;;13.07;4.13;;;;;;;20.37;38.81;102040.03;4996652;28;20523;-82
2022/06/20 00:58:33;;;;;;;16.23;4.15;;;;;;;20.28;39.32;102036.56;4996372;28;20081;-81
2022/06/20 01:01:00;;;;;;;14.27;3.85;;;;;;;20.35;38.86;102025.69;4996497;28;20029;-82
2022/06/20 01:03:37;;;;;;;14.93;4.85;;;;;;;20.32;38.97;102020.81;5000129;28;20384;-82
2022/06/20 01:06:13;;;;;;;12.70;4.10;;;;;;;20.31;38.90;102024.75;5016168;28;20065;-83
2022/06/20 01:08:43;;;;;;;17.90;4.72;;;;;;;20.30;38.99;102025.94;5016055;28;20033;-83
2022/06/20 01:11:22;;;;;;;14.27;4.05;;;;;;;20.33;38.72;102028.00;5033749;28;20178;-82
2022/06/20 01:13:48;;;;;;;12.77;4.43;;;;;;;20.39;38.71;102018.28;5033145;28;20026;-82
2022/06/20 01:16:14;;;;;;;11.35;3.85;;;;;;;20.34;38.78;102012.97;5015901;28;20545;-82
2022/06/20 01:18:43;;;;;;;13.98;5.72;;;;;;;20.24;38.86;102017.03;5015732;28;20029;-81
2022/06/20 01:21:15;;;;;;;15.27;4.43;;;;;;;20.20;39.00;102024.44;5015721;28;20029;-82
2022/06/20 01:24:21;;;;;;;15.43;4.20;;;;;;;20.19;39.03;102025.59;4992251;28;20125;-82
2022/06/20 01:27:07;;;;;;;14.93;4.05;;;;;;;20.34;38.82;102012.97;4899096;29;20088;-83
2022/06/20 01:29:33;;;;;;;18.63;4.03;;;;;;;20.29;38.79;102002.91;4988936;28;20035;-82
2022/06/20 01:32:00;;;;;;;11.38;4.22;;;;;;;20.20;39.13;102007.78;4992644;28;20037;-82
2022/06/20 01:34:26;;;;;;;17.63;4.20;;;;;;;20.20;39.24;102005.81;4991939;28;20026;-82
2022/06/20 01:39:41;;;;;;;11.27;4.80;;;;;;;20.23;39.28;102009.84;4993949;28;20053;-82
2022/06/20 01:42:18;;;;;;;16.70;4.18;;;;;;;20.21;39.09;102015.75;4993732;28;20496;-82
2022/06/20 01:44:47;;;;;;;12.77;3.90;;;;;;;20.19;39.13;102009.75;4980504;28;20106;-82
2022/06/20 01:47:13;;;;;;;12.27;4.33;;;;;;;20.10;39.16;102011.00;4977106;28;20027;-81
2022/06/20 01:49:43;;;;;;;16.40;4.45;;;;;;;20.05;39.11;102014.03;4992118;28;20272;-81
2022/06/20 01:52:13;;;;;;;;;;;;;;;20.02;39.04;102025.81;4992416;28;20030;-81
2022/06/20 01:54:44;;;;;;;13.35;4.22;;;;;;;20.01;39.08;102024.19;4980158;28;19929;-81
2022/06/20 01:57:11;;;;;;;14.40;4.50;;;;;;;20.02;38.96;102025.81;4972878;28;20022;-82
2022/06/20 01:59:46;;;;;;;18.13;4.38;;;;;;;19.94;39.79;102021.97;4972729;28;20514;-82
2022/06/20 02:02:13;;;;;;;13.43;4.95;;;;;;;19.96;39.30;102014.16;4978086;28;20397;-81
2022/06/20 02:04:40;;;;;;;14.30;4.22;;;;;;;19.92;39.56;102019.56;4992121;28;20214;-82
2022/06/20 02:07:09;;;;;;;14.70;4.32;;;;;;;19.89;39.66;102011.13;4991856;28;20037;-82
2022/06/20 02:09:36;;;;;;;13.07;4.82;;;;;;;19.93;39.63;101998.19;4992147;28;20026;-82
2022/06/20 02:12:03;;;;;;;10.27;4.13;;;;;;;19.85;40.06;101997.13;4987626;28;20491;-82
2022/06/20 02:14:44;;;;;;;13.63;4.60;;;;;;;19.89;40.12;101997.28;5005248;28;20129;-81
2022/06/20 02:17:19;;;;;;;14.65;5.00;;;;;;;19.92;40.16;102004.88;4972574;28;20026;-82
2022/06/20 02:19:51;;;;;;;14.38;4.75;;;;;;;20.02;39.92;102009.16;4973797;28;20037;-82
2022/06/20 02:22:19;;;;;;;12.80;4.22;;;;;;;20.06;39.94;102007.31;4980612;28;20101;-83
2022/06/20 02:24:49;;;;;;;18.00;4.57;;;;;;;20.08;40.22;102008.59;4992085;28;20089;-82
2022/06/20 02:27:24;;;;;;;13.55;4.03;;;;;;;20.03;40.21;102010.81;4991851;28;20023;-82
2022/06/20 02:29:50;;;;;;;19.15;4.80;;;;;;;20.09;39.91;101995.53;4991832;28;20035;-82
2022/06/20 02:32:20;;;;;;;13.95;5.07;;;;;;;20.11;39.73;101996.81;4995577;28;20504;-81
2022/06/20 02:34:46;;;;;;;15.77;4.80;;;;;;;20.05;40.11;102008.47;5011631;28;20029;-83
2022/06/20 02:37:20;;;;;;;19.27;5.20;;;;;;;20.07;40.02;101993.09;5011657;28;20034;-82
2022/06/20 02:39:49;;;;;;;16.23;5.38;;;;;;;20.03;40.22;101983.88;5012669;28;20025;-83
2022/06/20 02:42:22;;;;;;;12.88;4.70;;;;;;;20.01;40.19;101985.34;5001121;28;20065;-82
2022/06/20 02:44:49;;;;;;;12.55;3.92;;;;;;;19.93;40.52;101979.56;4991774;28;20034;-82
2022/06/20 02:47:17;;;;;;;18.60;4.82;;;;;;;19.98;40.38;101986.06;4992936;28;20535;-82
2022/06/20 02:49:45;;;;;;;19.17;5.40;;;;;;;19.99;40.27;101988.47;5000911;28;20026;-82
2022/06/20 02:52:17;;;;;;;21.63;6.38;;;;;;;19.97;40.38;101990.00;5015243;28;20052;-82
2022/06/20 02:54:45;;;;;;;18.88;4.78;;;;;;;20.00;40.51;102000.38;5015044;28;20113;-82
2022/06/20 02:57:16;;;;;;;14.20;3.78;;;;;;;19.92;40.51;101991.81;5015189;28;20033;-82
2022/06/20 02:59:53;;;;;;;14.05;4.75;;;;;;;19.89;40.83;102000.03;5011460;28;20065;-82
2022/06/20 03:02:25;;;;;;;20.98;4.65;;;;;;;19.76;41.09;101990.09;5028375;28;20216;-82
2022/06/20 03:04:51;;;;;;;20.35;5.30;;;;;;;19.78;41.05;101988.56;4995401;28;20366;-82
2022/06/20 03:07:24;;;;;;;14.27;4.30;;;;;;;19.74;41.27;101993.22;4996662;28;20130;-82
2022/06/20 03:09:56;;;;;;;20.35;6.30;;;;;;;19.75;41.32;101989.28;5013102;28;20048;-83
2022/06/20 03:12:21;;;;;;;17.00;5.20;;;;;;;19.84;41.02;101994.72;5014938;28;20365;-82
2022/06/20 03:14:54;;;;;;;11.75;4.35;;;;;;;19.84;41.08;101980.84;5016147;28;20029;-82
2022/06/20 03:17:22;;;;;;;15.63;4.68;;;;;;;19.86;41.00;101984.88;5015774;28;20079;-82
2022/06/20 03:19:59;;;;;;;16.42;4.82;;;;;;;19.83;41.19;101991.13;5014503;28;20036;-82
2022/06/20 03:22:36;;;;;;;16.08;4.30;;;;;;;19.76;41.46;101996.44;5014518;28;20053;-81
2022/06/20 03:25:03;;;;;;;13.43;3.97;;;;;;;19.74;41.32;101993.22;5014623;28;20634;-83
2022/06/20 03:27:33;;;;;;;17.30;4.78;;;;;;;19.76;41.38;101996.44;5002460;28;20397;-82
2022/06/20 03:30:05;;;;;;;13.63;4.53;;;;;;;19.75;41.41;101997.59;4996288;28;20116;-82
2022/06/20 03:32:30;;;;;;;21.85;5.22;;;;;;;19.71;41.52;102004.16;4994972;28;20057;-83
2022/06/20 03:34:56;;;;;;;15.32;4.35;;;;;;;19.74;41.19;102004.31;4995515;28;20121;-82
2022/06/20 03:37:23;;;;;;;13.63;4.35;;;;;;;19.75;41.20;102007.88;5014271;28;20069;-82
2022/06/20 03:39:50;;;;;;;11.80;4.68;;;;;;;19.74;41.21;102009.03;5014338;28;20026;-82
2022/06/20 03:42:17;;;;;;;16.45;4.57;;;;;;;19.69;41.12;102010.06;5014124;28;20030;-82
2022/06/20 03:44:49;;;;;;;23.67;5.22;;;;;;;19.59;41.44;102016.88;5014127;28;20035;-81
2022/06/20 03:47:32;;;;;;;17.40;4.40;;;;;;;19.58;41.33;102015.25;4995237;28;20041;-82
2022/06/20 03:50:03;;;;;;;19.55;5.28;;;;;;;19.53;41.53;102014.63;4994724;28;20030;-82
2022/06/20 03:52:35;;;;;;;21.60;4.72;;;;;;;19.55;41.41;102017.84;4994439;28;20125;-82
2022/06/20 03:55:00;;;;;;;16.40;4.60;;;;;;;19.57;41.31;102021.97;4994525;28;20034;-82
2022/06/20 03:58:10;;;;;;;7.90;3.45;;;;;;;19.53;41.31;102020.97;4994432;28;20045;-82
2022/06/20 04:00:47;;;;;;;18.98;4.82;;;;;;;19.51;41.15;102019.72;4998862;28;20503;-82
2022/06/20 04:03:25;;;;;;;15.07;4.63;;;;;;;19.53;41.27;102022.94;4994296;28;20105;-81
2022/06/20 04:05:55;;;;;;;20.92;4.80;;;;;;;19.49;41.47;102020.03;4995471;28;20032;-82
2022/06/20 04:11:24;;;;;;;19.70;5.43;;;;;;;19.44;41.32;102022.22;4995710;28;20044;-82
2022/06/20 04:14:19;;;;;;;13.07;4.30;;;;;;;19.42;41.57;102025.31;5026842;28;20034;-82
2022/06/20 04:20:00;;;;;;;22.00;4.65;;;;;;;19.62;41.28;102023.69;4995192;28;20045;-82
2022/06/20 04:22:29;;;;;;;;;;;;;;;19.53;41.71;102022.94;5002929;28;20073;-82
2022/06/20 04:25:05;;;;;;;17.27;5.43;;;;;;;19.69;41.41;102026.69;5009551;28;19916;-82
2022/06/20 04:27:36;;;;;;;16.00;4.97;;;;;;;19.78;41.23;102034.91;5016666;28;20502;-81
2022/06/20 04:30:11;;;;;;;14.13;4.38;;;;;;;19.78;41.31;102038.50;5016085;28;20029;-82
2022/06/20 04:32:44;;;;;;;12.68;4.03;;;;;;;19.80;41.27;102041.75;5016709;28;20388;-82
2022/06/20 04:35:13;;;;;;;16.92;6.22;;;;;;;19.78;41.30;102038.50;5015992;28;20130;-81
2022/06/20 04:37:51;;;;;;;13.38;4.72;;;;;;;19.86;41.19;102048.69;5034220;28;20026;-82
2022/06/20 04:40:23;;;;;;;12.23;4.30;;;;;;;19.86;41.20;102051.44;5016582;28;20392;-81
2022/06/20 04:42:53;;;;;;;14.00;4.82;;;;;;;19.86;41.30;102059.78;5034239;28;20699;-82
2022/06/20 04:45:37;;;;;;;;;;;;;;;19.70;41.60;102064.38;5001906;28;20026;-82
2022/06/20 04:48:11;;;;;;;11.00;4.03;;;;;;;19.81;41.58;102060.00;5029693;28;19917;-82
2022/06/20 04:50:39;;;;;;;18.40;5.88;;;;;;;19.88;41.36;102065.00;4996575;28;20416;-81
2022/06/20 04:53:10;;;;;;;18.98;4.38;;;;;;;19.90;41.45;102066.25;5006908;28;20025;-82
2022/06/20 04:55:40;;;;;;;9.55;3.80;;;;;;;19.99;41.40;102073.66;5016118;28;20087;-82
2022/06/20 04:58:12;;;;;;;12.40;3.80;;;;;;;20.08;41.19;102074.38;5033837;28;20068;-82
2022/06/20 05:00:42;;;;;;;11.75;3.80;;;;;;;20.11;41.04;102076.47;5016380;28;20040;-82
2022/06/20 05:03:08;;;;;;;;;;;;;;;20.03;41.44;102074.63;5016020;28;20033;-82
2022/06/20 05:05:38;;;;;;;13.65;3.85;;;;;;;20.19;40.96;102070.81;5015997;28;19960;-82
2022/06/20 05:08:09;;;;;;;12.88;4.75;;;;;;;20.31;41.08;102078.31;5016023;28;20391;-82
2022/06/20 05:10:41;;;;;;;15.95;4.78;;;;;;;20.43;40.69;102086.66;5015878;28;20026;-83
2022/06/20 05:13:21;;;;;;;15.32;4.88;;;;;;;20.40;41.11;102090.13;5033358;28;20025;-82
2022/06/20 05:15:49;;;;;;;23.95;5.20;;;;;;;20.43;41.04;102081.09;5033803;28;20030;-82
2022/06/20 05:18:31;;;;;;;13.25;4.57;;;;;;;20.10;41.99;102080.38;5016078;28;20395;-83
2022/06/20 05:21:07;;;;;;;15.20;4.65;;;;;;;20.46;41.24;102091.53;5009347;28;20037;-84
2022/06/20 05:23:38;;;;;;;16.05;4.30;;;;;;;20.53;41.37;102090.13;5001013;28;20046;-82
2022/06/20 05:26:07;;;;;;;14.70;4.70;;;;;;;20.76;41.03;102085.72;4994101;28;20030;-83
2022/06/20 05:28:36;;;;;;;16.83;4.80;;;;;;;20.76;40.93;102092.06;5004492;28;20057;-83
2022/06/20 05:31:02;;;;;;;15.13;4.20;;;;;;;20.81;41.03;102102.16;5011417;28;20282;-83
2022/06/20 05:33:36;;;;;;;11.00;4.88;;;;;;;20.83;41.09;102088.69;5013407;28;20030;-82
2022/06/20 05:36:23;;;;;;;29.02;5.43;;;;;;;20.81;41.43;102096.59;5012388;28;20033;-83
2022/06/20 05:39:15;;;;;;;15.35;4.93;;;;;;;20.91;41.12;102104.44;5012243;28;20056;-82
2022/06/20 05:41:41;;;;;;;25.23;7.03;;;;;;;21.05;41.20;102101.28;5000339;28;20544;-83
2022/06/20 05:44:16;;;;;;;15.50;3.80;;;;;;;21.13;41.10;102097.53;4992492;28;20386;-82
2022/06/20 05:46:53;;;;;;;17.92;4.28;;;;;;;20.89;42.16;102101.19;4992574;28;20031;-83
2022/06/20 05:49:28;;;;;;;17.42;4.70;;;;;;;21.31;41.18;102092.53;4993715;28;20642;-83
2022/06/20 05:51:56;;;;;;;13.10;4.10;;;;;;;21.31;41.26;102093.34;5006664;28;20030;-83
2022/06/20 05:54:30;;;;;;;20.42;4.93;;;;;;;21.35;41.28;102093.44;5013200;28;20029;-83
2022/06/20 05:57:04;;;;;;;14.77;4.70;;;;;;;21.40;41.42;102082.06;5011999;28;20030;-83
2022/06/20 05:59:39;;;;;;;15.52;5.10;;;;;;;21.68;41.18;102086.78;5011981;28;20056;-82
2022/06/20 06:02:26;;;;;;;15.23;4.60;;;;;;;22.00;40.82;102107.94;4997257;28;20026;-82
2022/06/20 06:05:15;;;;;;;25.15;4.68;;;;;;;22.34;40.76;102116.75;4993678;28;20029;-83
2022/06/20 06:07:48;;;;;;;14.68;4.65;;;;;;;22.54;40.17;102135.16;4992155;28;20031;-83
2022/06/20 06:10:31;;;;;;;16.25;5.00;;;;;;;22.58;40.42;102127.69;4992377;28;20022;-82
2022/06/20 06:13:23;;;;;;;13.48;3.85;;;;;;;22.73;40.37;102125.25;4992165;28;20040;-83
2022/06/20 06:19:12;;;;;;;24.83;5.82;;;;;;;22.86;39.83;102135.13;4993436;28;20112;-82
2022/06/20 06:21:38;;;;;;;19.48;5.75;;;;;;;22.88;39.62;102125.22;5012048;28;20180;-83
2022/06/20 06:24:06;;;;;;;18.80;4.30;;;;;;;22.94;39.25;102134.13;5032365;28;20033;-83
2022/06/20 06:26:35;;;;;;;15.00;4.43;;;;;;;23.03;39.53;102142.28;5014368;28;20110;-82
2022/06/20 06:29:01;;;;;;;14.05;3.90;;;;;;;23.00;39.35;102138.25;5032665;28;20064;-82
2022/06/20 06:31:33;;;;;;;16.40;4.28;;;;;;;22.77;39.51;102151.22;4997249;28;20026;-81
2022/06/20 06:34:02;;;;;;;13.40;4.50;;;;;;;23.01;39.08;102156.59;4995267;28;20033;-83
2022/06/20 06:36:43;;;;;;;13.25;3.50;;;;;;;23.15;38.77;102144.94;4994406;28;20026;-83
2022/06/20 06:39:25;;;;;;;16.15;4.85;;;;;;;23.20;38.74;102142.69;4995112;28;20037;-81
2022/06/20 06:41:56;;;;;;;12.82;3.92;;;;;;;23.36;38.73;102150.19;4995395;28;20101;-82
2022/06/20 06:44:33;;;;;;;14.13;3.55;;;;;;;23.56;38.78;102151.78;4995138;28;20076;-83
2022/06/20 06:47:00;;;;;;;12.32;3.97;;;;;;;23.65;38.28;102163.53;5012825;28;20030;-82
2022/06/20 06:49:46;;;;;;;21.33;5.90;;;;;;;23.80;37.99;102159.88;5013889;28;20029;-83
2022/06/20 06:52:19;;;;;;;15.82;4.00;;;;;;;23.89;38.01;102150.47;4994809;28;20034;-83
2022/06/20 06:55:01;;;;;;;15.98;4.55;;;;;;;24.00;37.46;102152.25;4995301;28;20438;-84
2022/06/20 06:57:40;;;;;;;13.90;4.15;;;;;;;23.86;37.06;102163.16;4995680;28;20033;-86
2022/06/20 07:00:06;;;;;;;19.40;4.68;;;;;;;23.97;37.08;102160.59;4995324;28;20557;-85
2022/06/20 07:02:37;;;;;;;13.10;3.58;;;;;;;23.98;37.00;102153.81;4996008;28;20125;-85
2022/06/20 07:05:08;;;;;;;15.75;5.00;;;;;;;23.91;37.15;102148.09;5014339;28;20443;-83
2022/06/20 07:07:43;;;;;;;16.73;4.15;;;;;;;24.04;37.24;102149.56;5014519;28;20129;-82
2022/06/20 07:10:18;;;;;;;12.25;4.30;;;;;;;24.19;36.60;102147.81;5014334;28;20069;-82
2022/06/20 07:12:49;;;;;;;12.85;3.58;;;;;;;24.30;36.58;102152.38;5031790;28;20473;-84
2022/06/20 07:15:23;;;;;;;13.40;4.63;;;;;;;24.32;36.56;102158.44;5014673;28;20043;-82
2022/06/20 07:18:02;;;;;;;20.85;4.25;;;;;;;24.43;36.40;102153.03;5031165;28;20095;-82
2022/06/20 07:20:34;;;;;;;19.80;4.28;;;;;;;24.47;36.35;102150.28;5014118;28;20123;-83
2022/06/20 07:23:05;;;;;;;16.67;4.35;;;;;;;24.50;36.25;102150.38;5031847;28;20054;-83
2022/06/20 07:25:39;;;;;;;15.60;3.65;;;;;;;24.65;35.58;102143.03;5014317;28;20026;-84
2022/06/20 07:28:30;;;;;;;14.20;4.65;;;;;;;24.60;35.77;102140.53;5014133;28;20079;-82
2022/06/20 07:31:02;;;;;;;15.93;3.67;;;;;;;24.62;35.88;102144.56;5032153;28;20037;-82
2022/06/20 07:33:39;;;;;;;14.77;4.30;;;;;;;24.81;35.38;102143.66;5014421;28;20044;-82
2022/06/20 07:36:09;;;;;;;17.77;4.80;;;;;;;24.86;35.01;102146.13;5035104;28;20030;-84
2022/06/20 07:38:52;;;;;;;20.92;4.40;;;;;;;24.81;34.84;102140.06;5017462;28;20121;-83
2022/06/20 07:41:29;;;;;;;17.90;3.90;;;;;;;24.91;34.86;102136.59;5016881;28;20063;-83
2022/06/20 07:44:02;;;;;;;10.05;3.13;;;;;;;25.05;34.76;102124.84;5017994;28;20021;-84
2022/06/20 07:46:41;;;;;;;13.25;3.78;;;;;;;25.07;34.26;102126.06;5035584;28;20103;-83
2022/06/20 07:49:20;;;;;;;12.82;3.85;;;;;;;25.03;34.72;102124.41;5017588;28;20025;-83
2022/06/20 07:51:49;;;;;;;16.55;3.20;;;;;;;25.25;34.54;102112.34;5035239;28;20030;-83
2022/06/20 07:54:27;;;;;;;20.75;4.15;;;;;;;25.26;34.13;102121.53;5035293;28;20053;-83
2022/06/20 07:57:09;;;;;;;16.92;4.72;;;;;;;25.27;34.07;102123.94;5017512;28;20407;-83
2022/06/20 07:59:35;;;;;;;11.07;3.97;;;;;;;25.33;33.98;102116.03;5017416;28;20025;-84
2022/06/20 08:02:21;;;;;;;10.25;4.03;;;;;;;25.26;33.98;102110.34;5017503;28;20033;-83
2022/06/20 08:04:53;;;;;;;14.63;4.22;;;;;;;25.41;33.70;102107.31;5016933;28;20030;-83
2022/06/20 08:07:45;;;;;;;18.23;4.18;;;;;;;25.40;33.32;102111.31;5017210;28;20124;-83
2022/06/20 08:10:34;;;;;;;13.68;3.90;;;;;;;25.43;33.54;102106.94;5035177;28;20030;-83
2022/06/20 08:13:09;;;;;;;9.48;3.40;;;;;;;25.48;33.60;102119.78;5017100;28;20029;-83
2022/06/20 08:15:48;;;;;;;13.98;3.83;;;;;;;25.37;33.14;102106.47;5017150;28;20072;-83
2022/06/20 08:18:14;;;;;;;23.05;4.97;;;;;;;25.39;33.41;102118.09;5035239;28;20447;-83
2022/06/20 08:20:46;;;;;;;12.70;3.92;;;;;;;25.31;33.65;102123.97;5035272;28;20032;-83
2022/06/20 08:23:30;;;;;;;11.70;3.85;;;;;;;25.45;33.44;102119.34;5016379;28;20041;-82
2022/06/20 08:26:01;;;;;;;16.95;4.00;;;;;;;25.58;33.37;102127.50;5016884;28;20487;-83
2022/06/20 08:28:43;;;;;;;12.43;4.57;;;;;;;25.72;33.15;102116.50;5017023;28;20174;-84
2022/06/20 08:31:20;;;;;;;9.18;2.65;;;;;;;25.63;33.11;102113.97;5016992;28;20029;-83
2022/06/20 08:33:56;;;;;;;18.20;4.30;;;;;;;25.65;33.35;102111.59;5017257;28;20033;-83
2022/06/20 08:36:52;;;;;;;11.73;4.05;;;;;;;25.71;33.72;102114.84;5016893;28;20021;-83
2022/06/20 08:39:24;;;;;;;16.15;4.38;;;;;;;25.98;33.46;102118.34;5000223;28;20045;-84
2022/06/20 08:42:12;;;;;;;14.25;4.00;;;;;;;26.16;33.66;102121.31;5001869;28;20025;-83
2022/06/20 08:44:53;;;;;;;13.30;3.30;;;;;;;26.19;33.57;102121.34;5001505;28;20033;-84
2022/06/20 08:48:00;;;;;;;11.35;3.20;;;;;;;26.30;33.10;102121.44;5001652;28;20025;-84
2022/06/20 08:51:07;;;;;;;10.90;3.90;;;;;;;26.20;33.05;102120.13;4897607;28;20092;-83
2022/06/20 08:54:05;;;;;;;15.02;4.20;;;;;;;26.46;33.10;102124.00;5001404;28;20995;-83
2022/06/20 08:56:42;;;;;;;13.60;3.38;;;;;;;26.37;32.47;102115.06;4969525;28;20065;-84
2022/06/20 08:59:25;;;;;;;10.93;3.20;;;;;;;26.49;32.17;102126.81;5019592;28;20033;-84
2022/06/20 09:01:51;;;;;;;13.45;4.20;;;;;;;26.68;31.96;102122.16;5019318;28;20029;-84
2022/06/20 09:04:35;;;;;;;13.45;3.42;;;;;;;26.72;31.43;102118.16;5001728;28;20849;-85
2022/06/20 09:07:23;;;;;;;9.25;3.47;;;;;;;26.87;31.15;102113.44;5019371;28;20036;-84
2022/06/20 09:09:58;;;;;;;12.77;3.45;;;;;;;27.17;30.43;102116.03;5001966;28;20029;-83
2022/06/20 09:12:40;;;;;;;12.13;3.10;;;;;;;27.18;29.89;102116.81;5001769;28;20033;-84
2022/06/20 09:15:36;;;;;;;10.95;3.40;;;;;;;27.00;29.96;102117.53;5001801;28;20092;-84
2022/06/20 09:18:18;;;;;;;8.65;2.35;;;;;;;27.04;30.20;102115.56;5025511;28;20543;-83
2022/06/20 09:20:56;;;;;;;6.35;2.45;;;;;;;27.07;30.11;102116.78;5016059;28;20506;-84
2022/06/20 09:23:30;;;;;;;8.45;2.75;;;;;;;27.03;29.34;102108.31;5015646;28;20042;-83
2022/06/20 09:26:14;;;;;;;6.43;1.73;;;;;;;27.11;28.86;102103.56;5015866;28;20427;-84
2022/06/20 09:29:28;;;;;;;20.02;4.38;;;;;;;27.49;28.99;102099.28;5015919;28;20021;-84
2022/06/20 09:32:02;;;;;;;12.02;2.50;;;;;;;27.54;29.03;102107.34;4992051;28;20031;-84
2022/06/20 09:34:45;;;;;;;21.50;3.70;;;;;;;27.69;29.09;102098.97;5013342;28;20060;-84
2022/06/20 09:37:42;;;;;;;10.07;3.20;;;;;;;27.78;29.01;102102.19;5015762;28;20035;-83
2022/06/20 09:40:54;;;;;;;9.10;2.53;;;;;;;27.85;27.98;102096.59;5015774;28;20116;-83
2022/06/20 09:44:04;;;;;;;8.75;3.20;;;;;;;28.07;28.31;102088.97;4984860;28;20045;-84
2022/06/20 09:46:45;;;;;;;14.10;3.30;;;;;;;28.15;28.31;102088.59;4985376;28;20048;-84
2022/06/20 09:49:45;;;;;;;5.55;2.17;;;;;;;28.27;28.12;102097.81;5033348;28;20029;-84
2022/06/20 09:52:27;;;;;;;7.22;2.97;;;;;;;28.52;27.83;102081.75;5015320;28;20033;-83
2022/06/20 09:54:57;;;;;;;5.55;2.50;;;;;;;28.63;27.42;102093.75;5033283;28;20092;-84
2022/06/20 09:57:31;;;;;;;;;;;;;;;28.35;27.50;102086.19;5015164;28;20033;-84
2022/06/20 10:00:11;;;;;;;9.48;2.50;;;;;;;28.78;27.05;102088.91;5015243;28;19956;-84
2022/06/20 10:02:39;;;;;;;15.18;2.90;;;;;;;28.75;27.20;102084.91;5033087;28;20040;-83
2022/06/20 10:05:40;;;;;;;11.25;3.47;;;;;;;28.69;27.22;102091.34;5015425;28;20555;-84
2022/06/20 10:08:21;;;;;;;9.88;3.00;;;;;;;28.96;27.36;102086.09;5002655;28;20041;-84
2022/06/20 10:11:12;;;;;;;12.80;3.22;;;;;;;29.01;26.98;102078.00;5015266;28;20029;-84
2022/06/20 10:13:54;;;;;;;12.55;2.67;;;;;;;29.06;27.07;102090.84;5015174;28;20022;-84
2022/06/20 10:16:24;;;;;;;12.32;2.97;;;;;;;29.07;27.00;102095.28;5015078;28;20092;-83
2022/06/20 10:19:11;;;;;;;12.32;3.50;;;;;;;28.96;26.98;102089.69;5032721;28;20108;-82
2022/06/20 10:22:10;;;;;;;10.45;3.30;;;;;;;28.75;28.40;102098.97;5032479;28;20029;-83
2022/06/20 10:25:03;;;;;;;12.50;3.33;;;;;;;28.90;29.27;102090.50;5032667;28;20524;-82
2022/06/20 10:27:41;;;;;;;13.90;3.78;;;;;;;28.85;29.64;102093.72;5008990;28;20492;-83
2022/06/20 10:30:10;;;;;;;14.95;3.70;;;;;;;28.82;29.51;102088.91;5015148;28;20032;-83
2022/06/20 10:32:42;;;;;;;12.27;3.83;;;;;;;28.70;29.63;102087.31;5032513;28;20037;-82
2022/06/20 10:35:18;;;;;;;12.55;3.92;;;;;;;28.63;30.03;102087.34;5032549;28;20033;-83
2022/06/20 10:37:54;;;;;;;11.57;3.80;;;;;;;28.47;30.33;102077.31;5015049;28;20052;-83
2022/06/20 10:40:38;;;;;;;13.70;3.75;;;;;;;28.57;30.57;102078.53;5015008;28;20026;-83
2022/06/20 10:45:06;;;;;;;12.63;3.50;;;;;;;28.40;31.01;102077.34;5090489;27;20413;-83
2022/06/20 10:47:42;;;;;;;11.13;3.42;;;;;;;28.37;30.68;102069.72;5089125;28;20040;-83
2022/06/20 10:50:25;;;;;;;13.43;4.03;;;;;;;28.37;30.76;102074.53;5088959;28;20099;-84
2022/06/20 10:52:53;;;;;;;8.63;3.28;;;;;;;28.53;30.73;102077.72;5086025;28;20028;-83
2022/06/20 10:55:51;;;;;;;18.15;4.40;;;;;;;28.58;30.47;102073.72;5086138;28;20017;-83
2022/06/20 10:58:46;;;;;;;11.18;2.65;;;;;;;28.59;30.23;102070.50;5084331;28;20040;-83
2022/06/20 11:01:30;;;;;;;12.13;3.80;;;;;;;28.87;30.91;102085.66;5090153;28;20471;-83
2022/06/20 11:04:08;;;;;;;12.80;3.67;;;;;;;29.11;30.69;102067.13;5088574;28;20509;-83
2022/06/20 11:06:58;;;;;;;13.73;3.42;;;;;;;28.86;30.75;102059.53;5088738;28;20510;-82
2022/06/20 11:09:48;;;;;;;15.40;4.93;;;;;;;28.63;30.77;102085.31;5088561;28;20052;-83
2022/06/20 11:12:28;;;;;;;9.18;3.40;;;;;;;28.75;29.86;102072.84;5088574;28;20032;-84
2022/06/20 11:15:04;;;;;;;12.20;3.58;;;;;;;28.72;30.18;102073.69;5088532;28;20119;-84
2022/06/20 11:17:48;;;;;;;14.85;4.03;;;;;;;28.80;30.43;102061.19;5088631;28;20031;-84
2022/06/20 11:20:47;;;;;;;10.85;3.33;;;;;;;28.93;30.20;102064.38;5088725;28;20024;-83
2022/06/20 11:23:19;;;;;;;14.95;3.97;;;;;;;29.02;30.39;102053.50;5088738;28;20478;-85
2022/06/20 11:26:12;;;;;;;10.63;3.00;;;;;;;29.14;30.17;102055.84;5089594;28;20036;-84
2022/06/20 11:28:39;;;;;;;10.23;4.57;;;;;;;29.14;29.94;102055.84;5088477;28;20642;-85
2022/06/20 11:31:29;;;;;;;11.02;3.63;;;;;;;29.08;29.92;102051.03;5075077;28;20039;-84
2022/06/20 11:34:15;;;;;;;10.32;2.80;;;;;;;29.05;29.60;102051.88;5073604;28;20023;-84
2022/06/20 11:37:04;;;;;;;13.27;4.65;;;;;;;29.33;29.65;102056.56;5073079;28;20032;-84
2022/06/20 11:39:56;;;;;;;11.60;3.83;;;;;;;29.22;29.31;102045.34;5073018;28;20062;-83
2022/06/20 11:43:03;;;;;;;14.23;4.47;;;;;;;29.21;29.38;102046.56;5072579;28;20066;-84
2022/06/20 11:46:13;;;;;;;13.93;5.18;;;;;;;28.91;29.80;102044.28;5087728;28;20562;-82
2022/06/20 11:49:01;;;;;;;11.30;3.15;;;;;;;28.96;29.59;102043.88;5075164;28;20124;-82
2022/06/20 11:51:46;;;;;;;15.98;4.18;;;;;;;28.99;29.78;102034.59;5088129;28;20035;-83
2022/06/20 11:54:29;;;;;;;9.30;3.10;;;;;;;28.94;29.96;102035.03;5087229;28;20039;-83
2022/06/20 11:57:06;;;;;;;11.63;3.22;;;;;;;29.05;29.83;102035.78;5075701;28;20029;-82
2022/06/20 12:00:03;;;;;;;11.55;3.72;;;;;;;28.92;30.16;102029.81;5075448;28;20056;-82
2022/06/20 12:02:56;;;;;;;10.25;3.13;;;;;;;28.74;30.18;102013.00;5074293;28;20115;-83
2022/06/20 12:05:55;;;;;;;13.32;3.88;;;;;;;28.58;30.03;102018.28;5074038;28;20031;-83
2022/06/20 12:08:48;;;;;;;11.85;3.20;;;;;;;28.51;30.42;102021.09;5074042;28;20028;-83
2022/06/20 12:11:16;;;;;;;13.02;3.65;;;;;;;28.55;30.48;102030.31;5074072;28;20488;-83
2022/06/20 12:14:04;;;;;;;9.38;2.90;;;;;;;28.67;30.55;102018.63;5074007;28;20186;-84
2022/06/20 12:16:48;;;;;;;11.88;3.83;;;;;;;28.70;30.28;102008.56;5073286;28;20033;-83